createdAt,value
2022-12-13T00:03:23.681Z,0.35418
2022-12-13T00:08:25.290Z,0.23224
2022-12-13T00:13:26.942Z,0.09474
2022-12-13T00:18:28.649Z,-0.10025
2022-12-13T00:23:30.275Z,0.076
2022-12-13T00:28:31.931Z,-0.14344
2022-12-13T00:33:33.568Z,-0.28412
2022-12-13T00:38:35.209Z,-0.20758
2022-12-13T00:43:36.896Z,-0.44353
2022-12-13T00:48:38.695Z,-0.69313
2022-12-13T00:53:40.304Z,-0.75283
2022-12-13T00:58:43.361Z,-1.0615
2022-12-13T01:03:48.067Z,-1.26887
2022-12-13T01:08:49.720Z,-1.08151
2022-12-13T01:13:51.301Z,-0.98021
2022-12-13T01:18:52.913Z,-1.22822
2022-12-13T01:23:54.533Z,-1.28189
2022-12-13T01:28:56.132Z,-0.88653
2022-12-13T01:33:57.742Z,-1.40446
2022-12-13T01:38:59.558Z,-1.02371
2022-12-13T01:44:01.533Z,-1.15423
2022-12-13T01:49:03.207Z,-0.73219
2022-12-13T01:54:04.883Z,-0.42829
2022-12-13T01:59:06.708Z,-1.46798
2022-12-13T02:04:08.435Z,-1.34349
2022-12-13T02:09:10.081Z,-1.09421
2022-12-13T02:14:11.691Z,-1.57182
2022-12-13T02:19:20.535Z,-1.46417
2022-12-13T02:24:22.155Z,-1.13676
2022-12-13T02:29:30.468Z,-1.13803
2022-12-13T02:34:34.091Z,-0.90971
2022-12-13T02:39:35.882Z,-0.9475
2022-12-13T02:44:37.521Z,-0.53975
2022-12-13T02:49:39.233Z,-1.49275
2022-12-13T02:54:42.849Z,-1.71694
2022-12-13T02:59:44.797Z,-1.28189
2022-12-13T03:04:46.399Z,-1.33905
2022-12-13T03:09:48.017Z,-1.38287
2022-12-13T03:14:49.689Z,-0.97132
2022-12-13T03:19:51.292Z,-1.32158
2022-12-13T03:24:52.914Z,-0.85255
2022-12-13T03:29:54.910Z,-1.38668
2022-12-13T03:35:00.932Z,-1.37017
2022-12-13T03:40:02.719Z,-1.3219
2022-12-13T03:45:04.361Z,-1.00275
2022-12-13T03:50:25.785Z,-1.27903
2022-12-13T03:55:29.097Z,-1.64104
2022-12-13T04:00:30.755Z,-0.82778
2022-12-13T04:05:32.381Z,-1.62739
2022-12-13T04:10:34.224Z,-1.31777
2022-12-13T04:15:35.870Z,-1.2387
2022-12-13T04:20:37.537Z,-0.89701
2022-12-13T04:25:39.298Z,-1.0415
2022-12-13T04:30:40.882Z,-0.92972
2022-12-13T04:35:42.472Z,-0.77506
2022-12-13T04:40:44.152Z,-0.40892
2022-12-13T04:45:45.773Z,-0.77094
2022-12-13T04:50:47.429Z,-0.63502
2022-12-13T04:55:49.039Z,-1.16249
2022-12-13T05:00:50.665Z,-1.45051
2022-12-13T05:05:52.310Z,-0.80618
2022-12-13T05:10:53.909Z,-0.91225
2022-12-13T05:15:55.552Z,-0.80809
2022-12-13T05:20:57.185Z,-1.99036
2022-12-13T05:25:58.774Z,-1.57118
2022-12-13T05:31:00.396Z,-1.27458
2022-12-13T05:36:02.413Z,-1.54514
2022-12-13T05:41:04.022Z,-1.95352
2022-12-13T05:46:05.700Z,-1.33143
2022-12-13T05:51:10.573Z,-1.68836
2022-12-13T05:56:13.085Z,-2.36285
2022-12-13T06:01:24.331Z,-1.45623
2022-12-13T06:06:26.014Z,-1.19869
2022-12-13T06:11:31.118Z,-0.78808
2022-12-13T06:16:34.233Z,-0.72394
2022-12-13T06:21:41.129Z,-0.81158
2022-12-13T06:26:47.413Z,-1.50767
2022-12-13T06:31:48.993Z,-1.75155
2022-12-13T06:36:50.860Z,-1.50926
2022-12-13T06:41:52.434Z,-1.50894
2022-12-13T06:46:54.446Z,-1.27839
2022-12-13T06:52:14.510Z,-1.0488
2022-12-13T06:57:16.124Z,-1.49592
2022-12-13T07:02:24.948Z,-1.12819
2022-12-13T07:07:27.574Z,-0.99672
2022-12-13T07:12:29.642Z,-1.20536
2022-12-13T07:17:32.467Z,-0.72013
2022-12-13T07:22:36.967Z,-1.03419
2022-12-13T07:27:41.935Z,-0.52038
2022-12-13T07:32:43.730Z,-0.4013
2022-12-13T07:37:45.371Z,-0.61724
2022-12-13T07:42:46.957Z,-0.36541
2022-12-13T07:47:48.676Z,-0.69409
2022-12-13T07:52:50.336Z,-0.71854
2022-12-13T07:57:51.945Z,-0.49974
2022-12-13T08:02:53.553Z,-0.66106
2022-12-13T08:07:55.146Z,-1.28824
2022-12-13T08:12:56.795Z,-1.96686
2022-12-13T08:17:58.446Z,-1.86968
2022-12-13T08:23:01.951Z,-2.05069
2022-12-13T08:28:04.083Z,-1.98591
2022-12-13T08:33:05.698Z,-1.25426
2022-12-13T08:38:07.312Z,-1.49433
2022-12-13T08:43:08.895Z,-1.26061
2022-12-13T08:48:10.499Z,-1.67153
2022-12-13T08:53:12.058Z,-1.01704
2022-12-13T08:58:31.459Z,-0.99418
2022-12-13T09:03:33.085Z,-0.71917
2022-12-13T09:08:35.141Z,-1.50513
2022-12-13T09:13:37.183Z,-1.0831
2022-12-13T09:18:45.460Z,-1.18853
2022-12-13T09:23:56.620Z,-1.66994
2022-12-13T09:29:10.963Z,-1.97035
2022-12-13T09:34:13.485Z,-1.81157
2022-12-13T09:39:15.192Z,-1.42003
2022-12-13T09:44:30.530Z,-1.68677
2022-12-13T09:49:35.739Z,-1.06245
2022-12-13T09:54:47.148Z,-1.04245
2022-12-13T09:59:49.823Z,-1.37557
2022-12-13T10:04:51.439Z,-1.11358
2022-12-13T10:09:53.048Z,-0.92495
2022-12-13T10:14:54.653Z,-0.96465
2022-12-13T10:19:56.265Z,-0.69091
2022-12-13T10:24:57.967Z,-0.94274
2022-12-13T10:29:59.598Z,-0.39939
2022-12-13T10:35:01.210Z,-0.41654
2022-12-13T10:40:02.865Z,-0.7052
2022-12-13T10:45:04.635Z,-0.75855
2022-12-13T10:50:06.275Z,-0.84683
2022-12-13T10:55:22.765Z,-0.81127
2022-12-13T11:00:25.613Z,-1.32444
2022-12-13T11:05:27.224Z,-1.55689
2022-12-13T11:10:28.958Z,-1.77696
2022-12-13T11:15:30.664Z,-2.06466
2022-12-13T11:20:32.251Z,-1.05388
2022-12-13T11:25:33.869Z,-0.84524
2022-12-13T11:30:35.509Z,-1.12184
2022-12-13T11:35:37.168Z,-1.4883
2022-12-13T11:40:38.766Z,-0.87668
2022-12-13T11:45:40.447Z,-1.06341
2022-12-13T11:50:42.281Z,-0.84239
2022-12-13T11:55:43.939Z,-1.21044
2022-12-13T12:00:45.512Z,-0.98719
2022-12-13T12:05:48.641Z,-0.98084
2022-12-13T12:10:58.046Z,-0.96433
2022-12-13T12:16:02.989Z,-0.91161
2022-12-13T12:21:04.632Z,-1.38414
2022-12-13T12:26:06.254Z,-1.63184
2022-12-13T12:36:08.192Z,-1.55245
2022-12-13T12:41:16.997Z,-1.43686
2022-12-13T12:46:19.171Z,-1.89509
2022-12-13T12:51:20.824Z,-2.86141
2022-12-13T12:56:22.425Z,-1.47496
2022-12-13T13:01:24.098Z,-1.06912
2022-12-13T13:06:25.766Z,-1.06182
2022-12-13T13:11:27.393Z,-1.16979
2022-12-13T13:16:29.062Z,-2.35935
2022-12-13T13:21:30.718Z,-2.35269
2022-12-13T13:26:36.340Z,-1.34984
2022-12-13T13:31:38.476Z,-1.81665
2022-12-13T13:36:40.120Z,-2.63912
2022-12-13T13:41:41.742Z,-2.99033
2022-12-13T13:46:43.423Z,-2.21074
2022-12-13T13:52:16.754Z,-2.56418
2022-12-13T13:58:07.253Z,-3.12212
2022-12-13T14:03:22.420Z,-2.03831
2022-12-13T14:08:31.058Z,-2.46828
2022-12-13T14:13:32.657Z,-2.29203
2022-12-13T14:18:34.349Z,-1.21361
2022-12-13T14:23:35.987Z,-1.01895
2022-12-13T14:28:37.663Z,-2.21106
2022-12-13T14:33:39.291Z,-1.69725
2022-12-13T14:38:49.334Z,-1.3978
2022-12-13T14:43:50.997Z,-1.45877
2022-12-13T14:48:52.618Z,-1.42923
2022-12-13T14:53:54.225Z,-1.69662
2022-12-13T14:58:55.901Z,-1.34095
2022-12-13T15:03:59.592Z,-3.319
2022-12-13T15:09:02.540Z,-1.89096
2022-12-13T15:14:07.095Z,-2.27076
2022-12-13T15:19:11.549Z,-1.99956
2022-12-13T15:24:13.161Z,-1.97226
2022-12-13T15:29:14.818Z,-2.239
2022-12-13T15:34:28.289Z,-1.96908
2022-12-13T15:39:31.383Z,-2.65436
2022-12-13T15:44:32.999Z,-2.61149
2022-12-13T15:49:34.742Z,-2.99097
2022-12-13T15:54:36.496Z,-1.3092
2022-12-13T15:59:38.071Z,-2.57751
2022-12-13T16:04:39.695Z,-1.90906
2022-12-13T16:09:41.305Z,-1.94399
2022-12-13T16:14:49.300Z,-1.78617
2022-12-13T16:19:51.761Z,-1.29268
2022-12-13T16:24:53.501Z,-1.85285
2022-12-13T16:29:55.118Z,-1.60071
2022-12-13T16:34:56.712Z,-1.65946
2022-12-13T16:39:58.291Z,-1.74743
2022-12-13T16:45:39.516Z,-2.55116
2022-12-13T16:50:42.634Z,-2.34951
2022-12-13T16:55:44.294Z,-2.19899
2022-12-13T17:01:00.190Z,-2.33713
2022-12-13T17:06:01.855Z,-2.24059
2022-12-13T17:11:06.597Z,-2.30219
2022-12-13T17:16:08.388Z,-1.72678
2022-12-13T17:21:10.091Z,-1.17201
2022-12-13T17:26:11.682Z,-1.39208
2022-12-13T17:31:13.490Z,-1.57817
2022-12-13T17:36:15.261Z,-1.19805
2022-12-13T17:41:16.854Z,-1.52609
2022-12-13T17:46:18.565Z,-1.29522
2022-12-13T17:51:20.262Z,-0.32
2022-12-13T17:56:21.884Z,-0.27364
2022-12-13T18:01:23.564Z,-0.49656
2022-12-13T18:06:25.248Z,-0.23997
2022-12-13T18:11:34.495Z,-0.55627
2022-12-13T18:16:38.274Z,-1.17265
2022-12-13T18:21:40.556Z,-1.28475
2022-12-13T18:26:42.169Z,-1.71758
2022-12-13T18:31:43.887Z,-1.03165
2022-12-13T18:36:45.551Z,-1.17932
2022-12-13T18:41:47.141Z,-0.93988
2022-12-13T18:46:48.748Z,-0.93035
2022-12-13T18:51:50.331Z,0.29258
2022-12-13T18:56:51.955Z,0.6673
2022-12-13T19:01:53.629Z,0.43897
2022-12-13T19:06:55.287Z,1.12301
2022-12-13T19:11:58.654Z,1.48599
2022-12-13T19:17:00.389Z,0.6184
2022-12-13T19:22:02.164Z,-0.06278
2022-12-13T19:27:03.755Z,0.774
2022-12-13T19:32:05.372Z,0.69112
2022-12-13T19:37:07.076Z,0.61046
2022-12-13T19:42:08.750Z,1.37706
2022-12-13T19:47:10.337Z,1.54823
2022-12-13T19:52:11.943Z,0.6022
2022-12-13T19:57:13.522Z,0.64476
2022-12-13T20:02:15.109Z,1.42787
2022-12-13T20:07:16.760Z,0.86737
2022-12-13T20:12:18.418Z,0.75368
2022-12-13T20:17:20.045Z,0.15761
2022-12-13T20:22:21.712Z,1.06267
2022-12-13T20:27:23.505Z,0.55361
2022-12-13T20:32:25.257Z,0.4828
2022-12-13T20:37:26.851Z,1.15635
2022-12-13T20:42:28.429Z,1.65239
2022-12-13T20:47:33.830Z,1.20621
2022-12-13T20:52:38.230Z,1.41358
2022-12-13T20:57:39.859Z,1.33451
2022-12-13T21:02:41.503Z,1.39866
2022-12-13T21:07:43.100Z,1.02552
2022-12-13T21:12:50.027Z,1.08077
2022-12-13T21:17:51.645Z,0.73018
2022-12-13T21:22:53.266Z,1.10967
2022-12-13T21:27:54.889Z,1.15127
2022-12-13T21:32:56.482Z,1.52918
2022-12-13T21:38:03.625Z,1.35324
2022-12-13T21:43:06.882Z,0.97598
2022-12-13T21:48:08.501Z,0.26749
2022-12-13T21:53:10.124Z,1.18017
2022-12-13T21:58:11.924Z,1.28783
2022-12-13T22:03:13.504Z,1.1319
2022-12-13T22:08:15.143Z,1.22082
2022-12-13T22:13:16.776Z,1.177
2022-12-13T22:18:18.337Z,1.30688
2022-12-13T22:23:19.954Z,1.3272
2022-12-13T22:28:21.587Z,-0.52768
2022-12-13T22:33:23.306Z,-0.31047
2022-12-13T22:38:25.129Z,-0.02276
2022-12-13T22:43:27.263Z,0.58823
2022-12-13T22:48:29.466Z,0.68286
2022-12-13T22:53:31.401Z,0.60506
2022-12-13T22:58:33.085Z,0.62888
2022-12-13T23:03:34.703Z,0.63682
2022-12-13T23:08:41.787Z,-0.67567
2022-12-13T23:13:44.987Z,-0.91384
2022-12-13T23:18:50.213Z,0.1303
2022-12-13T23:23:51.825Z,0.28972
2022-12-13T23:28:53.484Z,0.12681
2022-12-13T23:33:55.125Z,-0.10406
2022-12-13T23:38:56.729Z,-0.25839
2022-12-13T23:43:58.369Z,-0.02372
2022-12-13T23:48:59.995Z,-0.52578
2022-12-13T23:54:01.588Z,-1.51434
2022-12-13T23:59:03.199Z,-0.84874
